KMHR

Sacramento Mather Airport

Sacramento, California, USA
METAR KMHR 220355Z 32006KT 10SM SKC 10/05 A3027
Observed Flight Rules
Jan-22 @ 03:55 UTC (42 minutes ago) Visual Flight Rules
Wind Visibility Clouds
320° at 6 knots 10 miles
  • Clear skies
Temperatures Readings
Current 10°C / 50°F
Dewpoint 5°C / 41°F
Humidity 71%
Altimeter 30.27" Hg
Pressure 1025.02 hPa
Elevation 29
METAR KMHR 220355Z 32006KT 10SM SKC 10/05 A3027
Observed Flight Rules
Jan-22 @ 03:55 UTC
(42 minutes ago)
VFR
Wind Visibility
320° at 6 knots 10 miles
Clouds
  • Clear skies
Temperature Dewpoint
10°C / 50°F 5°C / 41°F
Humidity Altimeter Pressure
71% 30.27" Hg 1025.02 hPa